sensor_id;sensor_type;location;lat;lon;timestamp;pressure;altitude;pressure_sealevel;temperature;humidity
41686;BME280;27370;42.764;23.432;2023-03-12T00:02:17;94716.50;;;-0.15;100.00
41686;BME280;27370;42.764;23.432;2023-03-12T00:04:42;94719.97;;;-0.11;100.00
41686;BME280;27370;42.764;23.432;2023-03-12T00:07:08;94708.47;;;-0.18;100.00
41686;BME280;27370;42.764;23.432;2023-03-12T00:09:35;94716.81;;;-0.20;100.00
41686;BME280;27370;42.764;23.432;2023-03-12T00:12:01;94703.00;;;-0.29;100.00
41686;BME280;27370;42.764;23.432;2023-03-12T00:14:27;94721.72;;;-0.22;100.00
41686;BME280;27370;42.764;23.432;2023-03-12T00:16:52;94708.31;;;-0.29;100.00
41686;BME280;27370;42.764;23.432;2023-03-12T00:19:20;94715.53;;;-0.29;100.00
41686;BME280;27370;42.764;23.432;2023-03-12T00:21:46;94726.44;;;-0.12;100.00
41686;BME280;27370;42.764;23.432;2023-03-12T00:24:11;94724.22;;;-0.06;100.00
41686;BME280;27370;42.764;23.432;2023-03-12T00:26:37;94746.38;;;0.02;100.00
41686;BME280;27370;42.764;23.432;2023-03-12T00:29:03;94750.09;;;-0.03;100.00
41686;BME280;27370;42.764;23.432;2023-03-12T00:31:30;94754.88;;;0.11;100.00
41686;BME280;27370;42.764;23.432;2023-03-12T00:33:58;94753.44;;;0.17;100.00
41686;BME280;27370;42.764;23.432;2023-03-12T00:36:26;94737.41;;;0.13;100.00
41686;BME280;27370;42.764;23.432;2023-03-12T00:38:52;94752.81;;;0.27;100.00
41686;BME280;27370;42.764;23.432;2023-03-12T00:41:18;94744.06;;;0.26;100.00
41686;BME280;27370;42.764;23.432;2023-03-12T00:43:48;94738.00;;;0.29;100.00
41686;BME280;27370;42.764;23.432;2023-03-12T00:46:14;94734.13;;;0.23;100.00
41686;BME280;27370;42.764;23.432;2023-03-12T00:48:40;94740.56;;;0.22;100.00
41686;BME280;27370;42.764;23.432;2023-03-12T00:51:06;94743.19;;;0.19;100.00
41686;BME280;27370;42.764;23.432;2023-03-12T00:53:32;94749.06;;;0.32;100.00
41686;BME280;27370;42.764;23.432;2023-03-12T00:55:57;94745.22;;;0.29;100.00
41686;BME280;27370;42.764;23.432;2023-03-12T00:58:23;94746.03;;;0.33;100.00
41686;BME280;27370;42.764;23.432;2023-03-12T01:00:48;94759.25;;;0.26;100.00
41686;BME280;27370;42.764;23.432;2023-03-12T01:03:14;94748.22;;;0.24;100.00
41686;BME280;27370;42.764;23.432;2023-03-12T01:05:40;94749.94;;;0.13;100.00
41686;BME280;27370;42.764;23.432;2023-03-12T01:08:07;94752.97;;;0.11;100.00
41686;BME280;27370;42.764;23.432;2023-03-12T01:10:34;94751.75;;;0.05;100.00
41686;BME280;27370;42.764;23.432;2023-03-12T01:13:00;94755.63;;;0.11;100.00
41686;BME280;27370;42.764;23.432;2023-03-12T01:15:26;94765.50;;;0.11;100.00
41686;BME280;27370;42.764;23.432;2023-03-12T01:17:52;94756.41;;;0.12;100.00
41686;BME280;27370;42.764;23.432;2023-03-12T01:20:18;94770.63;;;0.23;100.00
41686;BME280;27370;42.764;23.432;2023-03-12T01:22:43;94773.44;;;0.07;100.00
41686;BME280;27370;42.764;23.432;2023-03-12T01:25:09;94776.97;;;0.15;100.00
41686;BME280;27370;42.764;23.432;2023-03-12T01:27:35;94756.09;;;-0.10;100.00
41686;BME280;27370;42.764;23.432;2023-03-12T01:30:01;94777.88;;;-0.01;100.00
41686;BME280;27370;42.764;23.432;2023-03-12T01:32:26;94785.41;;;-0.06;100.00
41686;BME280;27370;42.764;23.432;2023-03-12T01:34:52;94793.44;;;-0.03;100.00
41686;BME280;27370;42.764;23.432;2023-03-12T01:37:18;94790.44;;;-0.01;100.00
41686;BME280;27370;42.764;23.432;2023-03-12T01:39:43;94795.66;;;-0.08;100.00
41686;BME280;27370;42.764;23.432;2023-03-12T01:42:09;94800.56;;;-0.10;100.00
41686;BME280;27370;42.764;23.432;2023-03-12T01:44:51;94804.88;;;-0.02;100.00
41686;BME280;27370;42.764;23.432;2023-03-12T01:47:17;94801.75;;;-0.08;100.00
41686;BME280;27370;42.764;23.432;2023-03-12T01:49:42;94778.66;;;-0.26;100.00
41686;BME280;27370;42.764;23.432;2023-03-12T01:54:56;94762.53;;;-0.37;100.00
41686;BME280;27370;42.764;23.432;2023-03-12T01:57:27;94767.44;;;-0.39;100.00
41686;BME280;27370;42.764;23.432;2023-03-12T01:59:56;94769.78;;;-0.34;100.00
41686;BME280;27370;42.764;23.432;2023-03-12T02:02:23;94772.59;;;-0.23;100.00
41686;BME280;27370;42.764;23.432;2023-03-12T02:05:03;94778.78;;;-0.19;100.00
41686;BME280;27370;42.764;23.432;2023-03-12T02:07:30;94776.41;;;-0.24;100.00
41686;BME280;27370;42.764;23.432;2023-03-12T02:09:55;94774.28;;;-0.15;100.00
41686;BME280;27370;42.764;23.432;2023-03-12T02:12:21;94773.56;;;-0.12;100.00
41686;BME280;27370;42.764;23.432;2023-03-12T02:14:46;94773.59;;;-0.09;100.00
41686;BME280;27370;42.764;23.432;2023-03-12T02:17:12;94767.47;;;-0.13;100.00
41686;BME280;27370;42.764;23.432;2023-03-12T02:22:36;94783.84;;;-0.11;100.00
41686;BME280;27370;42.764;23.432;2023-03-12T02:25:28;94773.09;;;-0.18;100.00
41686;BME280;27370;42.764;23.432;2023-03-12T02:28:00;94784.16;;;-0.16;100.00
41686;BME280;27370;42.764;23.432;2023-03-12T02:30:29;94785.59;;;-0.22;100.00
41686;BME280;27370;42.764;23.432;2023-03-12T02:32:56;94781.16;;;-0.37;100.00
41686;BME280;27370;42.764;23.432;2023-03-12T02:35:22;94794.56;;;-0.30;100.00
41686;BME280;27370;42.764;23.432;2023-03-12T02:37:53;94787.13;;;-0.44;100.00
41686;BME280;27370;42.764;23.432;2023-03-12T02:42:51;94804.28;;;-0.41;100.00
41686;BME280;27370;42.764;23.432;2023-03-12T02:45:17;94802.59;;;-0.26;100.00
41686;BME280;27370;42.764;23.432;2023-03-12T02:47:44;94806.50;;;-0.20;100.00
41686;BME280;27370;42.764;23.432;2023-03-12T02:50:10;94793.69;;;-0.38;100.00
41686;BME280;27370;42.764;23.432;2023-03-12T02:52:36;94797.69;;;-0.47;100.00
41686;BME280;27370;42.764;23.432;2023-03-12T02:55:04;94786.22;;;-0.51;100.00
41686;BME280;27370;42.764;23.432;2023-03-12T02:57:30;94794.91;;;-0.54;100.00
41686;BME280;27370;42.764;23.432;2023-03-12T02:59:55;94778.50;;;-0.60;100.00
41686;BME280;27370;42.764;23.432;2023-03-12T03:02:21;94784.75;;;-0.49;100.00
41686;BME280;27370;42.764;23.432;2023-03-12T03:04:47;94791.03;;;-0.60;100.00
41686;BME280;27370;42.764;23.432;2023-03-12T03:07:12;94792.97;;;-0.57;100.00
41686;BME280;27370;42.764;23.432;2023-03-12T03:09:39;94785.31;;;-0.63;100.00
41686;BME280;27370;42.764;23.432;2023-03-12T03:12:06;94797.13;;;-0.60;100.00
41686;BME280;27370;42.764;23.432;2023-03-12T03:14:33;94795.63;;;-0.35;100.00
41686;BME280;27370;42.764;23.432;2023-03-12T03:16:58;94803.59;;;-0.35;100.00
41686;BME280;27370;42.764;23.432;2023-03-12T03:19:24;94810.31;;;-0.44;100.00
41686;BME280;27370;42.764;23.432;2023-03-12T03:21:49;94809.63;;;-0.60;100.00
41686;BME280;27370;42.764;23.432;2023-03-12T03:24:15;94819.09;;;-0.63;100.00
41686;BME280;27370;42.764;23.432;2023-03-12T03:26:42;94812.28;;;-0.60;100.00
41686;BME280;27370;42.764;23.432;2023-03-12T03:29:08;94816.91;;;-0.57;100.00
41686;BME280;27370;42.764;23.432;2023-03-12T03:31:34;94828.41;;;-0.73;100.00
41686;BME280;27370;42.764;23.432;2023-03-12T03:33:59;94824.84;;;-0.80;100.00
41686;BME280;27370;42.764;23.432;2023-03-12T03:36:25;94819.84;;;-0.85;100.00
41686;BME280;27370;42.764;23.432;2023-03-12T03:39:01;94824.91;;;-0.77;100.00
41686;BME280;27370;42.764;23.432;2023-03-12T03:41:28;94831.19;;;-0.66;100.00
41686;BME280;27370;42.764;23.432;2023-03-12T03:43:57;94837.13;;;-0.72;100.00
41686;BME280;27370;42.764;23.432;2023-03-12T03:46:24;94845.88;;;-0.72;100.00
41686;BME280;27370;42.764;23.432;2023-03-12T03:48:56;94850.06;;;-0.71;100.00
41686;BME280;27370;42.764;23.432;2023-03-12T03:51:22;94849.13;;;-0.82;100.00
41686;BME280;27370;42.764;23.432;2023-03-12T03:53:52;94837.66;;;-0.86;100.00
41686;BME280;27370;42.764;23.432;2023-03-12T03:56:17;94845.13;;;-0.92;100.00
41686;BME280;27370;42.764;23.432;2023-03-12T03:58:46;94843.19;;;-0.95;100.00
41686;BME280;27370;42.764;23.432;2023-03-12T04:01:13;94862.81;;;-0.80;100.00
41686;BME280;27370;42.764;23.432;2023-03-12T04:03:39;94876.13;;;-0.80;100.00
41686;BME280;27370;42.764;23.432;2023-03-12T04:06:05;94878.78;;;-0.80;100.00
41686;BME280;27370;42.764;23.432;2023-03-12T04:08:33;94877.19;;;-0.84;100.00
41686;BME280;27370;42.764;23.432;2023-03-12T04:11:05;94890.88;;;-0.82;100.00
41686;BME280;27370;42.764;23.432;2023-03-12T04:13:31;94885.91;;;-1.03;100.00
41686;BME280;27370;42.764;23.432;2023-03-12T04:15:56;94883.38;;;-1.15;100.00
41686;BME280;27370;42.764;23.432;2023-03-12T04:18:22;94885.19;;;-1.19;100.00
41686;BME280;27370;42.764;23.432;2023-03-12T04:20:48;94885.06;;;-1.07;100.00
41686;BME280;27370;42.764;23.432;2023-03-12T04:23:14;94900.25;;;-0.88;100.00
41686;BME280;27370;42.764;23.432;2023-03-12T04:25:39;94906.47;;;-0.81;100.00
41686;BME280;27370;42.764;23.432;2023-03-12T04:28:05;94909.41;;;-0.86;100.00
41686;BME280;27370;42.764;23.432;2023-03-12T04:30:32;94914.50;;;-0.77;100.00
41686;BME280;27370;42.764;23.432;2023-03-12T04:32:57;94916.13;;;-0.73;100.00
41686;BME280;27370;42.764;23.432;2023-03-12T04:35:23;94904.66;;;-0.77;100.00
41686;BME280;27370;42.764;23.432;2023-03-12T04:37:50;94910.13;;;-0.89;100.00
41686;BME280;27370;42.764;23.432;2023-03-12T04:40:16;94921.41;;;-0.92;100.00
41686;BME280;27370;42.764;23.432;2023-03-12T04:42:44;94911.72;;;-1.04;100.00
41686;BME280;27370;42.764;23.432;2023-03-12T04:45:10;94927.31;;;-1.02;100.00
41686;BME280;27370;42.764;23.432;2023-03-12T04:47:38;94914.09;;;-0.99;100.00
41686;BME280;27370;42.764;23.432;2023-03-12T04:50:04;94936.91;;;-0.78;100.00
41686;BME280;27370;42.764;23.432;2023-03-12T04:52:30;94951.78;;;-0.74;100.00
41686;BME280;27370;42.764;23.432;2023-03-12T04:54:56;94943.47;;;-0.72;100.00
41686;BME280;27370;42.764;23.432;2023-03-12T04:57:23;94952.06;;;-0.79;100.00
41686;BME280;27370;42.764;23.432;2023-03-12T04:59:49;94954.31;;;-0.81;100.00
41686;BME280;27370;42.764;23.432;2023-03-12T05:02:15;94964.72;;;-0.92;100.00
41686;BME280;27370;42.764;23.432;2023-03-12T05:04:40;94963.75;;;-0.83;100.00
41686;BME280;27370;42.764;23.432;2023-03-12T05:07:06;94976.69;;;-0.82;100.00
41686;BME280;27370;42.764;23.432;2023-03-12T05:09:32;94967.94;;;-0.82;100.00
41686;BME280;27370;42.764;23.432;2023-03-12T05:11:57;94974.75;;;-0.85;100.00
41686;BME280;27370;42.764;23.432;2023-03-12T05:14:23;94986.63;;;-0.79;100.00
41686;BME280;27370;42.764;23.432;2023-03-12T05:16:49;94990.88;;;-0.74;100.00
41686;BME280;27370;42.764;23.432;2023-03-12T05:19:14;94983.53;;;-0.81;100.00
41686;BME280;27370;42.764;23.432;2023-03-12T05:21:41;94986.50;;;-0.67;100.00
41686;BME280;27370;42.764;23.432;2023-03-12T05:24:08;94987.94;;;-0.69;100.00
41686;BME280;27370;42.764;23.432;2023-03-12T05:26:34;94997.41;;;-0.72;100.00
41686;BME280;27370;42.764;23.432;2023-03-12T05:29:12;95002.94;;;-0.61;100.00
41686;BME280;27370;42.764;23.432;2023-03-12T05:31:38;95008.41;;;-0.35;100.00
41686;BME280;27370;42.764;23.432;2023-03-12T05:34:05;95020.34;;;-0.06;100.00
41686;BME280;27370;42.764;23.432;2023-03-12T05:36:34;95013.97;;;-0.01;100.00
41686;BME280;27370;42.764;23.432;2023-03-12T05:39:00;95025.56;;;-0.13;100.00
41686;BME280;27370;42.764;23.432;2023-03-12T05:41:29;95027.16;;;-0.08;100.00
41686;BME280;27370;42.764;23.432;2023-03-12T05:43:59;95025.56;;;-0.13;100.00
41686;BME280;27370;42.764;23.432;2023-03-12T05:46:27;95024.38;;;-0.15;100.00
41686;BME280;27370;42.764;23.432;2023-03-12T05:48:53;95032.53;;;-0.05;100.00
41686;BME280;27370;42.764;23.432;2023-03-12T05:51:19;95045.63;;;0.04;100.00
41686;BME280;27370;42.764;23.432;2023-03-12T05:53:45;95041.91;;;0.09;100.00
41686;BME280;27370;42.764;23.432;2023-03-12T05:56:13;95050.59;;;0.25;100.00
41686;BME280;27370;42.764;23.432;2023-03-12T05:58:39;95056.97;;;0.43;100.00
41686;BME280;27370;42.764;23.432;2023-03-12T06:01:18;95045.81;;;0.57;100.00
41686;BME280;27370;42.764;23.432;2023-03-12T06:03:44;95065.63;;;0.82;100.00
41686;BME280;27370;42.764;23.432;2023-03-12T06:06:10;95061.84;;;0.83;100.00
41686;BME280;27370;42.764;23.432;2023-03-12T06:08:36;95075.97;;;0.87;100.00
41686;BME280;27370;42.764;23.432;2023-03-12T06:11:02;95077.16;;;0.67;100.00
41686;BME280;27370;42.764;23.432;2023-03-12T06:13:29;95080.59;;;0.68;100.00
41686;BME280;27370;42.764;23.432;2023-03-12T06:16:01;95076.22;;;0.79;100.00
41686;BME280;27370;42.764;23.432;2023-03-12T06:18:27;95079.69;;;1.06;100.00
41686;BME280;27370;42.764;23.432;2023-03-12T06:20:53;95084.22;;;1.28;100.00
41686;BME280;27370;42.764;23.432;2023-03-12T06:23:18;95079.66;;;1.29;100.00
41686;BME280;27370;42.764;23.432;2023-03-12T06:25:44;95096.84;;;1.31;100.00
41686;BME280;27370;42.764;23.432;2023-03-12T06:28:09;95089.50;;;1.25;100.00
41686;BME280;27370;42.764;23.432;2023-03-12T06:30:35;95088.16;;;1.11;100.00
41686;BME280;27370;42.764;23.432;2023-03-12T06:33:00;95103.97;;;1.23;100.00
41686;BME280;27370;42.764;23.432;2023-03-12T06:35:28;95108.94;;;1.51;100.00
41686;BME280;27370;42.764;23.432;2023-03-12T06:37:53;95113.09;;;1.49;100.00
41686;BME280;27370;42.764;23.432;2023-03-12T06:40:19;95106.94;;;1.18;100.00
41686;BME280;27370;42.764;23.432;2023-03-12T06:42:44;95104.69;;;1.20;100.00
41686;BME280;27370;42.764;23.432;2023-03-12T06:45:10;95122.97;;;1.45;100.00
41686;BME280;27370;42.764;23.432;2023-03-12T06:47:36;95117.81;;;1.33;100.00
41686;BME280;27370;42.764;23.432;2023-03-12T06:50:01;95129.94;;;1.27;100.00
41686;BME280;27370;42.764;23.432;2023-03-12T06:52:27;95123.16;;;1.33;100.00
41686;BME280;27370;42.764;23.432;2023-03-12T06:54:52;95128.78;;;1.28;100.00
41686;BME280;27370;42.764;23.432;2023-03-12T06:57:18;95133.22;;;1.16;100.00
41686;BME280;27370;42.764;23.432;2023-03-12T06:59:43;95147.78;;;1.22;100.00
41686;BME280;27370;42.764;23.432;2023-03-12T07:02:10;95146.34;;;1.29;100.00
41686;BME280;27370;42.764;23.432;2023-03-12T07:04:35;95149.13;;;1.62;100.00
41686;BME280;27370;42.764;23.432;2023-03-12T07:07:01;95134.91;;;1.81;100.00
41686;BME280;27370;42.764;23.432;2023-03-12T07:09:27;95141.72;;;1.78;100.00
41686;BME280;27370;42.764;23.432;2023-03-12T07:11:52;95147.75;;;2.02;100.00
41686;BME280;27370;42.764;23.432;2023-03-12T07:14:18;95145.09;;;2.02;100.00
41686;BME280;27370;42.764;23.432;2023-03-12T07:16:45;95144.72;;;2.03;100.00
41686;BME280;27370;42.764;23.432;2023-03-12T07:19:11;95151.66;;;2.08;100.00
41686;BME280;27370;42.764;23.432;2023-03-12T07:21:36;95143.53;;;2.01;100.00
41686;BME280;27370;42.764;23.432;2023-03-12T07:24:02;95151.66;;;2.08;100.00
41686;BME280;27370;42.764;23.432;2023-03-12T07:26:31;95156.53;;;2.32;100.00
41686;BME280;27370;42.764;23.432;2023-03-12T07:28:57;95171.56;;;2.44;100.00
41686;BME280;27370;42.764;23.432;2023-03-12T07:31:23;95148.69;;;2.46;100.00
41686;BME280;27370;42.764;23.432;2023-03-12T07:33:49;95160.38;;;2.68;100.00
41686;BME280;27370;42.764;23.432;2023-03-12T07:36:14;95153.31;;;2.87;100.00
41686;BME280;27370;42.764;23.432;2023-03-12T07:38:40;95165.91;;;2.86;100.00
41686;BME280;27370;42.764;23.432;2023-03-12T07:41:05;95166.78;;;2.97;100.00
41686;BME280;27370;42.764;23.432;2023-03-12T07:43:30;95177.72;;;3.22;100.00
41686;BME280;27370;42.764;23.432;2023-03-12T07:45:57;95171.22;;;3.23;100.00
41686;BME280;27370;42.764;23.432;2023-03-12T07:48:22;95154.97;;;2.98;100.00
41686;BME280;27370;42.764;23.432;2023-03-12T07:50:48;95156.19;;;2.71;100.00
41686;BME280;27370;42.764;23.432;2023-03-12T07:53:13;95181.25;;;2.93;100.00
41686;BME280;27370;42.764;23.432;2023-03-12T07:55:39;95185.41;;;3.27;100.00
41686;BME280;27370;42.764;23.432;2023-03-12T07:58:05;95173.38;;;3.51;100.00
41686;BME280;27370;42.764;23.432;2023-03-12T08:00:31;95162.84;;;3.80;100.00
41686;BME280;27370;42.764;23.432;2023-03-12T08:02:56;95167.31;;;3.61;100.00
41686;BME280;27370;42.764;23.432;2023-03-12T08:05:22;95170.81;;;3.69;100.00
41686;BME280;27370;42.764;23.432;2023-03-12T08:07:52;95173.81;;;3.60;100.00
41686;BME280;27370;42.764;23.432;2023-03-12T08:10:19;95180.31;;;3.59;100.00
41686;BME280;27370;42.764;23.432;2023-03-12T08:12:44;95174.22;;;3.62;100.00
41686;BME280;27370;42.764;23.432;2023-03-12T08:15:10;95164.06;;;3.38;100.00
41686;BME280;27370;42.764;23.432;2023-03-12T08:17:37;95164.94;;;3.49;100.00
41686;BME280;27370;42.764;23.432;2023-03-12T08:20:04;95181.03;;;3.53;100.00
41686;BME280;27370;42.764;23.432;2023-03-12T08:22:33;95177.75;;;3.26;100.00
41686;BME280;27370;42.764;23.432;2023-03-12T08:24:59;95173.16;;;3.74;100.00
41686;BME280;27370;42.764;23.432;2023-03-12T08:27:24;95160.69;;;3.99;100.00
41686;BME280;27370;42.764;23.432;2023-03-12T08:29:50;95184.41;;;4.01;100.00
41686;BME280;27370;42.764;23.432;2023-03-12T08:32:16;95189.84;;;4.08;100.00
41686;BME280;27370;42.764;23.432;2023-03-12T08:34:42;95190.72;;;4.34;100.00
41686;BME280;27370;42.764;23.432;2023-03-12T08:37:08;95180.13;;;4.66;100.00
41686;BME280;27370;42.764;23.432;2023-03-12T08:39:33;95185.53;;;4.76;100.00
41686;BME280;27370;42.764;23.432;2023-03-12T08:41:59;95180.56;;;4.82;100.00
41686;BME280;27370;42.764;23.432;2023-03-12T08:44:25;95196.31;;;4.98;100.00
41686;BME280;27370;42.764;23.432;2023-03-12T08:46:51;95185.19;;;4.92;100.00
41686;BME280;27370;42.764;23.432;2023-03-12T08:49:17;95179.06;;;4.88;100.00
41686;BME280;27370;42.764;23.432;2023-03-12T08:51:43;95194.84;;;5.32;100.00
41686;BME280;27370;42.764;23.432;2023-03-12T08:54:09;95198.31;;;5.58;100.00
41686;BME280;27370;42.764;23.432;2023-03-12T08:56:35;95200.22;;;5.32;100.00
41686;BME280;27370;42.764;23.432;2023-03-12T08:59:10;95198.31;;;5.40;100.00
41686;BME280;27370;42.764;23.432;2023-03-12T09:01:36;95201.00;;;5.54;100.00
41686;BME280;27370;42.764;23.432;2023-03-12T09:04:02;95194.84;;;5.64;100.00
41686;BME280;27370;42.764;23.432;2023-03-12T09:06:28;95191.81;;;5.73;100.00
41686;BME280;27370;42.764;23.432;2023-03-12T09:08:53;95189.50;;;5.82;100.00
41686;BME280;27370;42.764;23.432;2023-03-12T09:11:20;95196.81;;;5.67;100.00
41686;BME280;27370;42.764;23.432;2023-03-12T09:13:45;95196.41;;;5.83;100.00
41686;BME280;27370;42.764;23.432;2023-03-12T09:16:12;95199.47;;;6.13;100.00
41686;BME280;27370;42.764;23.432;2023-03-12T09:18:38;95180.59;;;6.28;100.00
41686;BME280;27370;42.764;23.432;2023-03-12T09:21:03;95190.94;;;6.47;100.00
41686;BME280;27370;42.764;23.432;2023-03-12T09:23:29;95179.75;;;6.59;97.58
41686;BME280;27370;42.764;23.432;2023-03-12T09:25:55;95193.00;;;6.98;100.00
41686;BME280;27370;42.764;23.432;2023-03-12T09:28:21;95204.06;;;6.20;89.56
41686;BME280;27370;42.764;23.432;2023-03-12T09:30:47;95204.84;;;6.17;100.00
41686;BME280;27370;42.764;23.432;2023-03-12T09:33:13;95193.28;;;6.34;95.07
41686;BME280;27370;42.764;23.432;2023-03-12T09:35:42;95200.84;;;6.68;97.61
41686;BME280;27370;42.764;23.432;2023-03-12T09:38:12;95189.16;;;6.99;100.00
41686;BME280;27370;42.764;23.432;2023-03-12T09:40:38;95196.44;;;7.10;87.47
41686;BME280;27370;42.764;23.432;2023-03-12T09:43:17;95196.41;;;7.13;92.09
41686;BME280;27370;42.764;23.432;2023-03-12T09:45:44;95204.09;;;7.11;96.36
41686;BME280;27370;42.764;23.432;2023-03-12T09:48:26;95185.34;;;7.56;88.17
41686;BME280;27370;42.764;23.432;2023-03-12T09:50:54;95192.06;;;7.33;87.89
41686;BME280;27370;42.764;23.432;2023-03-12T09:56:11;95201.41;;;7.15;83.77
41686;BME280;27370;42.764;23.432;2023-03-12T09:58:38;95183.28;;;6.38;87.74
41686;BME280;27370;42.764;23.432;2023-03-12T10:04:19;95182.38;;;7.40;90.62
41686;BME280;27370;42.764;23.432;2023-03-12T10:14:43;95198.81;;;7.56;83.52
41686;BME280;27370;42.764;23.432;2023-03-12T10:20:32;95180.25;;;7.13;89.97
41686;BME280;27370;42.764;23.432;2023-03-12T10:23:12;95193.91;;;7.44;80.98
41686;BME280;27370;42.764;23.432;2023-03-12T10:28:40;95191.72;;;7.80;77.69
41686;BME280;27370;42.764;23.432;2023-03-12T10:31:14;95181.06;;;8.07;83.27
41686;BME280;27370;42.764;23.432;2023-03-12T10:33:58;95188.47;;;7.99;76.58
41686;BME280;27370;42.764;23.432;2023-03-12T10:38:59;95209.78;;;7.27;72.42
41686;BME280;27370;42.764;23.432;2023-03-12T10:41:28;95192.72;;;7.45;87.99
41686;BME280;27370;42.764;23.432;2023-03-12T10:43:59;95194.38;;;7.83;77.77
41686;BME280;27370;42.764;23.432;2023-03-12T10:46:37;95192.97;;;8.09;84.21
41686;BME280;27370;42.764;23.432;2023-03-12T10:54:30;95183.84;;;8.75;87.00
41686;BME280;27370;42.764;23.432;2023-03-12T10:56:56;95192.97;;;8.50;72.20
41686;BME280;27370;42.764;23.432;2023-03-12T10:59:26;95183.50;;;7.90;73.54
41686;BME280;27370;42.764;23.432;2023-03-12T11:01:52;95188.00;;;7.59;74.13
41686;BME280;27370;42.764;23.432;2023-03-12T11:04:23;95189.50;;;7.64;80.65
41686;BME280;27370;42.764;23.432;2023-03-12T11:07:04;95178.50;;;7.48;80.55
41686;BME280;27370;42.764;23.432;2023-03-12T11:09:30;95183.16;;;7.40;86.04
41686;BME280;27370;42.764;23.432;2023-03-12T11:11:56;95173.34;;;7.12;84.71
41686;BME280;27370;42.764;23.432;2023-03-12T11:14:28;95184.50;;;7.66;77.96
41686;BME280;27370;42.764;23.432;2023-03-12T11:16:55;95185.16;;;7.29;83.93
41686;BME280;27370;42.764;23.432;2023-03-12T11:21:58;95179.88;;;7.66;83.06
41686;BME280;27370;42.764;23.432;2023-03-12T11:24:24;95185.72;;;7.58;82.81
41686;BME280;27370;42.764;23.432;2023-03-12T11:27:26;95191.13;;;7.54;73.52
41686;BME280;27370;42.764;23.432;2023-03-12T11:29:54;95171.72;;;6.45;78.44
41686;BME280;27370;42.764;23.432;2023-03-12T11:32:36;95176.28;;;6.62;85.16
41686;BME280;27370;42.764;23.432;2023-03-12T11:35:14;95171.66;;;6.63;88.06
41686;BME280;27370;42.764;23.432;2023-03-12T11:53:51;95169.56;;;6.95;82.51
41686;BME280;27370;42.764;23.432;2023-03-12T11:56:45;95169.09;;;7.15;82.00
41686;BME280;27370;42.764;23.432;2023-03-12T11:59:42;95154.00;;;7.76;82.89
41686;BME280;27370;42.764;23.432;2023-03-12T12:05:39;95159.06;;;8.49;76.31
41686;BME280;27370;42.764;23.432;2023-03-12T12:11:07;95149.38;;;8.18;89.25
41686;BME280;27370;42.764;23.432;2023-03-12T12:14:02;95152.66;;;8.40;73.36
41686;BME280;27370;42.764;23.432;2023-03-12T12:16:37;95148.13;;;8.64;69.98
41686;BME280;27370;42.764;23.432;2023-03-12T12:19:42;95164.81;;;8.51;71.63
41686;BME280;27370;42.764;23.432;2023-03-12T12:27:35;95166.59;;;7.42;67.98
41686;BME280;27370;42.764;23.432;2023-03-12T12:35:37;95158.47;;;7.93;72.31
41686;BME280;27370;42.764;23.432;2023-03-12T12:40:53;95136.72;;;8.49;73.71
41686;BME280;27370;42.764;23.432;2023-03-12T12:46:07;95139.38;;;8.52;73.24
41686;BME280;27370;42.764;23.432;2023-03-12T12:48:37;95149.53;;;8.41;70.92
41686;BME280;27370;42.764;23.432;2023-03-12T12:51:06;95144.50;;;8.74;73.62
41686;BME280;27370;42.764;23.432;2023-03-12T13:01:35;95161.31;;;8.54;69.64
41686;BME280;27370;42.764;23.432;2023-03-12T13:04:11;95154.66;;;8.66;69.88
41686;BME280;27370;42.764;23.432;2023-03-12T13:07:00;95156.19;;;8.29;77.79
41686;BME280;27370;42.764;23.432;2023-03-12T13:09:48;95165.28;;;8.77;70.91
41686;BME280;27370;42.764;23.432;2023-03-12T13:15:00;95160.97;;;8.11;74.04
41686;BME280;27370;42.764;23.432;2023-03-12T13:17:32;95173.56;;;8.25;70.53
41686;BME280;27370;42.764;23.432;2023-03-12T13:27:57;95171.59;;;7.88;76.19
41686;BME280;27370;42.764;23.432;2023-03-12T13:40:37;95182.25;;;7.02;68.30
41686;BME280;27370;42.764;23.432;2023-03-12T13:48:17;95168.91;;;6.77;78.66
41686;BME280;27370;42.764;23.432;2023-03-12T13:50:53;95179.22;;;6.93;83.80
41686;BME280;27370;42.764;23.432;2023-03-12T13:53:39;95183.50;;;6.80;73.63
41686;BME280;27370;42.764;23.432;2023-03-12T13:56:14;95167.78;;;6.67;78.69
41686;BME280;27370;42.764;23.432;2023-03-12T13:58:53;95165.50;;;6.66;78.76
41686;BME280;27370;42.764;23.432;2023-03-12T14:01:20;95175.00;;;6.88;76.76
41686;BME280;27370;42.764;23.432;2023-03-12T14:04:00;95181.38;;;7.16;81.61
41686;BME280;27370;42.764;23.432;2023-03-12T14:06:27;95177.47;;;7.27;80.25
41686;BME280;27370;42.764;23.432;2023-03-12T14:09:18;95178.41;;;7.03;70.76
41686;BME280;27370;42.764;23.432;2023-03-12T14:17:17;95191.47;;;7.01;75.38
41686;BME280;27370;42.764;23.432;2023-03-12T14:19:51;95191.69;;;7.31;77.17
41686;BME280;27370;42.764;23.432;2023-03-12T14:22:21;95192.16;;;7.16;72.84
41686;BME280;27370;42.764;23.432;2023-03-12T14:24:52;95206.00;;;7.14;72.45
41686;BME280;27370;42.764;23.432;2023-03-12T14:27:25;95193.28;;;7.18;76.69
41686;BME280;27370;42.764;23.432;2023-03-12T14:30:10;95180.16;;;7.27;76.07
41686;BME280;27370;42.764;23.432;2023-03-12T14:32:36;95193.69;;;7.17;75.62
41686;BME280;27370;42.764;23.432;2023-03-12T14:35:25;95194.06;;;7.19;75.61
41686;BME280;27370;42.764;23.432;2023-03-12T14:40:35;95188.13;;;6.72;72.67
41686;BME280;27370;42.764;23.432;2023-03-12T14:45:49;95191.53;;;6.87;78.92
41686;BME280;27370;42.764;23.432;2023-03-12T14:48:19;95202.16;;;7.15;79.12
41686;BME280;27370;42.764;23.432;2023-03-12T14:50:45;95208.94;;;7.37;78.61
41686;BME280;27370;42.764;23.432;2023-03-12T14:53:22;95203.38;;;7.62;76.40
41686;BME280;27370;42.764;23.432;2023-03-12T14:56:09;95210.25;;;7.74;73.33
41686;BME280;27370;42.764;23.432;2023-03-12T14:58:47;95206.50;;;7.57;70.82
41686;BME280;27370;42.764;23.432;2023-03-12T15:01:17;95208.91;;;7.48;72.92